createdAt,value
2023-04-14T04:20:39.065Z,98577.88
2023-04-14T04:24:44.956Z,98577.88
2023-04-14T04:28:49.452Z,98564.81
2023-04-14T04:32:52.630Z,98562.78
2023-04-14T04:36:57.870Z,98559.53
2023-04-14T04:41:01.488Z,98562.41
2023-04-14T04:45:05.461Z,98567.69
2023-04-14T04:49:08.898Z,98552.87
2023-04-14T04:53:13.070Z,98562.81
2023-04-14T04:57:17.332Z,98570.34
2023-04-14T05:01:20.406Z,98562.22
2023-04-14T05:05:23.637Z,98570.34
2023-04-14T05:09:26.259Z,98572.19
2023-04-14T05:13:29.364Z,98592.13
2023-04-14T05:17:32.356Z,98609.59
2023-04-14T05:21:35.684Z,98610.41
2023-04-14T05:25:38.450Z,98604.72
2023-04-14T05:29:41.849Z,98585.59
2023-04-14T05:33:44.560Z,98600.25
2023-04-14T05:37:47.650Z,98598.59
2023-04-14T05:41:50.432Z,98598.37
2023-04-14T05:45:53.569Z,98600.44
2023-04-14T05:49:58.603Z,98599.03
2023-04-14T05:59:21.562Z,98614.47
2023-04-14T06:03:24.438Z,98613.22
2023-04-14T06:07:36.250Z,98609.56
2023-04-14T06:11:39.902Z,98609.59
2023-04-14T06:16:01.887Z,98606.94
2023-04-14T06:20:07.181Z,98602.25
2023-04-14T06:24:10.500Z,98605.50
2023-04-14T06:28:13.228Z,98602.25
2023-04-14T06:32:17.004Z,98582.59
2023-04-14T06:36:19.762Z,98581.81
2023-04-14T06:40:22.948Z,98591.56
2023-04-14T06:44:25.941Z,98602.56
2023-04-14T06:48:28.993Z,98600.91
2023-04-14T06:52:31.803Z,98595.81
2023-04-14T06:56:34.921Z,98585.72
2023-04-14T07:00:38.693Z,98593.91
2023-04-14T07:04:41.927Z,98582.91
2023-04-14T07:08:45.525Z,98573.44
2023-04-14T07:12:52.087Z,98578.75
2023-04-14T07:16:54.851Z,98579.28
2023-04-14T07:21:00.253Z,98576.69
2023-04-14T07:25:03.045Z,98570.63
2023-04-14T07:29:07.464Z,98570.16
2023-04-14T07:33:10.232Z,98575.06
2023-04-14T07:37:13.386Z,98580.25
2023-04-14T07:41:16.412Z,98571.69
2023-04-14T07:45:19.399Z,98570.88
2023-04-14T07:49:22.234Z,98575.19
2023-04-14T07:53:26.403Z,98558.13
2023-04-14T07:57:29.661Z,98582.38
2023-04-14T08:01:33.441Z,98573.03
2023-04-14T08:05:36.526Z,98575.66
2023-04-14T08:09:39.390Z,98559.25
2023-04-14T08:13:43.781Z,98562.50
2023-04-14T08:17:48.774Z,98558.81
2023-04-14T08:21:52.816Z,98556.31
2023-04-14T08:25:56.087Z,98552.03
2023-04-14T08:29:59.130Z,98563.38
2023-04-14T08:34:01.882Z,98558.22
2023-04-14T08:38:04.863Z,98556.81
2023-04-14T08:42:08.328Z,98572.78
2023-04-14T08:46:12.202Z,98576.31
2023-04-14T08:50:18.082Z,98581.38
2023-04-14T08:54:21.690Z,98580.25
2023-04-14T08:58:24.434Z,98576.75
2023-04-14T09:02:28.047Z,98586.97
2023-04-14T09:06:31.841Z,98590.28
2023-04-14T09:10:36.268Z,98602.19
2023-04-14T09:14:40.088Z,98608.25
2023-04-14T09:18:43.561Z,98611.97
2023-04-14T09:22:50.176Z,98610.19
2023-04-14T09:26:53.286Z,98618.38
2023-04-14T09:30:56.608Z,98609.41
2023-04-14T09:34:59.834Z,98585.13
2023-04-14T09:39:17.067Z,98576.28
2023-04-14T09:43:27.525Z,98605.91
2023-04-14T09:47:31.649Z,98607.38
2023-04-14T09:51:35.185Z,98607.22
2023-04-14T09:55:45.303Z,98615.53
2023-04-14T09:59:48.249Z,98597.72
2023-04-14T10:03:51.077Z,98605.03
2023-04-14T10:07:56.657Z,98609.50
2023-04-14T10:12:13.876Z,98624.19
2023-04-14T10:16:17.772Z,98610.78
2023-04-14T10:20:20.744Z,98613.81
2023-04-14T10:24:24.788Z,98607.50
2023-04-14T10:28:28.969Z,98611.56
2023-04-14T10:32:35.758Z,98607.03
2023-04-14T10:36:40.158Z,98599.53
2023-04-14T10:45:53.998Z,98600.91
2023-04-14T10:49:58.258Z,98602.56
2023-04-14T10:54:03.590Z,98594.03
2023-04-14T10:58:06.796Z,98601.19
2023-04-14T11:02:23.777Z,98597.34
2023-04-14T11:06:46.429Z,98597.25
2023-04-14T11:10:53.003Z,98598.53
2023-04-14T11:15:04.544Z,98592.19
2023-04-14T11:19:16.379Z,98588.31
2023-04-14T11:23:28.331Z,98584.84
2023-04-14T11:27:32.519Z,98585.91
2023-04-14T11:31:37.177Z,98590.22
2023-04-14T11:35:43.175Z,98600.44
2023-04-14T11:39:49.454Z,98585.38
2023-04-14T11:43:53.156Z,98590.28
2023-04-14T11:48:01.127Z,98589.88
2023-04-14T11:52:08.258Z,98590.09
2023-04-14T11:56:13.349Z,98590.06
2023-04-14T12:00:16.530Z,98579.50
2023-04-14T12:04:19.960Z,98593.97
2023-04-14T12:08:24.200Z,98589.25
2023-04-14T12:12:29.127Z,98603.84
2023-04-14T12:16:32.511Z,98608.44
2023-04-14T12:20:52.706Z,98612.88
2023-04-14T12:24:58.700Z,98624.41
2023-04-14T12:29:02.431Z,98626.81
2023-04-14T12:33:12.580Z,98640.16
2023-04-14T12:37:15.628Z,98637.63
2023-04-14T12:41:28.377Z,98635.47
2023-04-14T12:45:45.440Z,98641.53
2023-04-14T12:49:48.348Z,98651.22
2023-04-14T12:53:52.514Z,98658.66
2023-04-14T12:57:55.762Z,98673.22
2023-04-14T13:01:58.924Z,98664.91
2023-04-14T13:06:02.189Z,98677.16
2023-04-14T13:10:06.073Z,98669.44
2023-04-14T13:14:08.949Z,98667.03
2023-04-14T13:18:12.067Z,98682.00
2023-04-14T13:22:14.910Z,98676.22
2023-04-14T13:26:17.941Z,98685.16
2023-04-14T13:30:20.965Z,98703.00
2023-04-14T13:34:24.059Z,98675.53
2023-04-14T13:38:27.487Z,98679.56
2023-04-14T13:42:30.770Z,98677.97
2023-04-14T13:46:40.615Z,98688.63
2023-04-14T13:50:44.441Z,98693.66
2023-04-14T13:54:47.204Z,98672.94
2023-04-14T13:58:50.750Z,98668.28
2023-04-14T14:02:53.600Z,98679.94
2023-04-14T14:06:56.772Z,98686.84
2023-04-14T14:10:59.602Z,98677.72
2023-04-14T14:15:04.975Z,98688.53
2023-04-14T14:19:10.202Z,98702.81
2023-04-14T14:23:13.265Z,98702.72
2023-04-14T14:27:16.515Z,98722.94
2023-04-14T14:31:19.567Z,98728.69
2023-04-14T14:35:22.364Z,98725.41
